• Join FlightAware (Why Join?)
  • Login
  • US Flag 
09:39PM EDT


 

Airport Tracker/Info


-or-


 

Live Flight TrackerFlight Track Log ✈ N609RL ✈ 24-Sep-2013 ✈ KJYR - KRAW

Flight Track Log - Related Links

Times and Time Zones

All times are in EDT time to prevent confusion due to time zone crossing. See the N609RL flight status page for this flight to view local times or setup timezone preferences in your user account.

Time Position Orientation Groundspeed Altitude Reporting Facility
EDT Latitude Longitude Course Direction KTS MPH feet Rate Location/Type
06:04PM 40.8481 -97.5161 126° Southeast 140 161 3,900  Level Minneapolis Center
06:05PM 40.8114 -97.4844 147° Southeast 133 153 4,800 660 Climbing Minneapolis Center
06:06PM 40.7800 -97.4569 146° Southeast 135 155 5,300 480 Climbing Minneapolis Center
06:07PM 40.7561 -97.4169 128° Southeast 136 157 5,900 480 Climbing Minneapolis Center
06:08PM 40.7342 -97.3747 124° Southeast 139 160 6,400 480 Climbing Minneapolis Center
06:10PM 40.7257 -97.3185 126° Southeast  Level Estimated
06:10PM 40.7106 -97.3325 126° Southeast 141 162 7,000  Level Minneapolis Center
06:11PM 40.6861 -97.2900 127° Southeast 144 166 7,600 600 Climbing Minneapolis Center
06:12PM 40.6619 -97.2489 128° Southeast 143 165 8,300 660 Climbing Minneapolis Center
06:13PM 40.6394 -97.2086 126° Southeast 140 161 9,000 660 Climbing Minneapolis Center
06:14PM 40.6133 -97.1583 124° Southeast 138 159 9,700 600 Climbing Minneapolis Center
06:15PM 40.5894 -97.1169 127° Southeast 141 162 10,300 480 Climbing Minneapolis Center
06:16PM 40.5667 -97.0744 125° Southeast 142 163 10,800 360 Climbing Minneapolis Center
06:17PM 40.5419 -97.0306 127° Southeast 144 166 11,100 60 Climbing Minneapolis Center
06:18PM 40.5136 -96.9800 126° Southeast 153 176 11,000  Descending Minneapolis Center
06:19PM 40.4756 -96.9142 127° Southeast 169 194 11,100  Climbing Minneapolis Center
06:20PM 40.4447 -96.8592 126° Southeast 178 205 11,000 -60 Descending Minneapolis Center
06:21PM 40.4136 -96.8044 127° Southeast 183 211 11,000  Level Minneapolis Center
06:23PM 40.3528 -96.6958 126° Southeast 185 213 11,000  Level Minneapolis Center
06:24PM 40.3217 -96.6428 128° Southeast 185 213 11,000  Level Minneapolis Center
06:25PM 40.2847 -96.5761 126° Southeast 186 214 11,000  Level Minneapolis Center
06:26PM 40.2542 -96.5233 127° Southeast 185 213 11,000  Level Minneapolis Center
06:27PM 40.2231 -96.4683 127° Southeast 186 214 11,000  Level Minneapolis Center
06:28PM 40.1931 -96.4158 127° Southeast 183 211 11,100  Climbing Minneapolis Center
06:29PM 40.1619 -96.3603 126° Southeast 186 214 11,100  Level Minneapolis Center
06:30PM 40.1311 -96.3086 128° Southeast 183 211 11,100  Level Minneapolis Center
06:31PM 40.0944 -96.2450 127° Southeast 183 211 11,100  Level Minneapolis Center
06:32PM 40.0636 -96.1906 126° Southeast 184 212 11,100  Level Minneapolis Center
06:33PM 40.0339 -96.1383 127° Southeast 183 211 11,100  Level Minneapolis Center
06:34PM 40.0031 -96.0844 127° Southeast 183 211 11,100  Level Minneapolis Center
06:35PM 39.9728 -96.0308 126° Southeast 183 211 11,100  Level Minneapolis Center
06:36PM 39.9417 -95.9769 127° Southeast 185 213 11,100  Level Minneapolis Center
06:37PM 39.9050 -95.9161 128° Southeast 182 209 11,100  Level Minneapolis Center
06:38PM 39.8742 -95.8631 127° Southeast 183 211 11,100  Level Minneapolis Center
06:40PM 39.8433 -95.8108 128° Southeast 183 211 11,100 -60 Level Minneapolis Center
06:41PM 39.8017 -95.7386 127° Southeast 186 214 11,000 -60 Descending Kansas City Center
06:42PM 39.7714 -95.6878 128° Southeast 186 214 11,000  Level Kansas City Center
06:43PM 39.7367 -95.6286 127° Southeast 184 212 11,000  Level Kansas City Center
06:44PM 39.7064 -95.5761 127° Southeast 188 216 11,000  Level Kansas City Center
06:45PM 39.6750 -95.5247 128° Southeast 190 219 11,000  Level Kansas City Center
06:46PM 39.6403 -95.4644 127° Southeast 187 215 11,000  Level Kansas City Center
06:47PM 39.6108 -95.4131 127° Southeast 186 214 11,000  Level Kansas City Center
06:48PM 39.5758 -95.3539 127° Southeast 185 213 11,000  Level Kansas City Center
06:49PM 39.5453 -95.3044 129° Southeast 183 211 11,000  Level Kansas City Center
06:50PM 39.5103 -95.2464 128° Southeast 183 211 11,000  Level Kansas City Center
06:51PM 39.4800 -95.1958 128° Southeast 184 212 11,000  Level Kansas City Center
06:52PM 39.4453 -95.1361 127° Southeast 185 213 11,000  Level Kansas City Center
06:53PM 39.4144 -95.0850 128° Southeast 187 215 11,000  Level Kansas City Center
06:54PM 39.3844 -95.0339 127° Southeast 187 215 11,000  Level Kansas City Center
06:55PM 39.3483 -94.9742 128° Southeast 188 216 11,000  Level Kansas City Center
06:56PM 39.3178 -94.9236 128° Southeast 186 214 11,000  Level Kansas City Center
06:57PM 39.2822 -94.8631 127° Southeast 189 217 11,000  Level Kansas City Center
06:58PM 39.2517 -94.8117 128° Southeast 188 216 11,000  Level Kansas City Center
06:59PM 39.2150 -94.7519 128° Southeast 189 217 11,000  Level Kansas City Center
07:00PM 39.1839 -94.7006 128° Southeast 190 219 11,000  Level Kansas City Center
07:01PM 39.1475 -94.6411 128° Southeast 190 219 11,000  Level Kansas City Center
07:03PM 39.1156 -94.5889 128° Southeast 193 222 11,000  Level Kansas City Center
07:04PM 39.0789 -94.5281 128° Southeast 192 221 11,000  Level Kansas City Center
07:05PM 39.0469 -94.4756 128° Southeast 196 226 11,000 -180 Level Kansas City Center
07:06PM 39.0139 -94.4222 129° Southeast 200 230 10,700 -360 Descending Kansas City Center
07:07PM 38.9742 -94.3553 127° Southeast 209 241 10,300 -480 Descending Kansas City Center
07:08PM 38.9386 -94.3011 130° Southeast 208 239 9,800 -480 Descending Kansas City Center
07:09PM 38.8997 -94.2375 128° Southeast 203 234 9,400 -300 Descending Kansas City Center
07:10PM 38.8697 -94.1853 126° Southeast 191 220 9,200 -240 Descending Kansas City Center
07:11PM 38.8325 -94.1258 129° Southeast 188 216 9,000 -300 Descending Kansas City Center
07:12PM 38.8022 -94.0769 128° Southeast 186 214 8,700 -420 Descending Kansas City Center
07:13PM 38.7656 -94.0214 130° Southeast 180 207 8,200 -480 Descending Kansas City Center
07:14PM 38.7381 -93.9739 127° Southeast 173 199 7,800 -540 Descending Kansas City Center
07:15PM 38.7053 -93.9214 129° Southeast 168 193 7,100 -600 Descending Kansas City Center
07:16PM 38.6769 -93.8756 128° Southeast 170 196 6,600 -540 Descending Kansas City Center
07:17PM 38.6444 -93.8211 127° Southeast 171 197 6,000 -600 Descending Kansas City Center
07:18PM 38.6147 -93.7747 129° Southeast 175 201 5,400 -660 Descending Kansas City Center
07:19PM 38.5814 -93.7194 128° Southeast 177 204 4,700 -660 Descending Kansas City Center
07:20PM 38.5511 -93.6697 128° Southeast 177 204 4,100 -540 Descending Kansas City Center
07:21PM 38.5189 -93.6228 131° Southeast 177 204 3,600 -540 Descending Kansas City Center
07:22PM 38.4897 -93.5744 128° Southeast 174 200 3,000 -300 Descending Kansas City Center
07:23PM 38.4619 -93.5283 128° Southeast 170 196 3,000  Level Kansas City Center
07:24PM 38.4331 -93.4847 130° Southeast 162 186 3,000  Level Kansas City Center
07:26PM 38.3921 -93.4265 132° Southeast  Level FlightAware Approximate
07:33PM 38.3479 -93.3454 123° Southeast  Level Estimated
07:34PM 38.3479 -93.3454 123° Southeast  Level Estimated
07:35PM 38.3479 -93.3454 123° Southeast  Level Estimated